<?xml version="1.0" encoding="UTF-8" standalone="no" ?>
<gpx xmlns="http://www.topografix.com/GPX/1/1" xmlns:xsi="http://www.w3.org/2001/XMLSchema-instance" xsi:schemaLocation="http://www.topografix.com/GPX/1/1 http://www.topografix.com/GPX/1/1/gpx.xsd" version="1.1" creator="VisuGPX - https://www.visugpx.com">
  <metadata>
    <name>Pégairolles de Buèges - mas Neuf - menhir de Larret</name>
    <desc><![CDATA[2015-11 - Pégairolles de Buèges - mas Neuf - menhir de Larret

[b]album[/b] : [url]https://goo.gl/photos/BXdu3cGE9GQL67fE9[/url]
[img]https://2.bp.blogspot.com/-_5kPNsaY0qc/WMrJfah8JPI/AAAAAAAAQyg/xRc-CxcWao43kosc74rq-CN52VqB1kTiACLcB/s1600/2015-11_Pegairolles-Bueges_Mas-Neuf_photos_i.JPG[/img]
[b]Idées de randonnées dans la même région[/b]
Parcours : [url]https://www.visugpx.com/membres/24856/causses/seranne/[/url]
Photos : [url]https://jcvertygo.blogspot.com/p/seranne.html[/url]]]></desc>
  </metadata>
  <trk>
    <name><![CDATA[Pégairolles de Buèges - mas Neuf - menhir de Larret_1]]></name>
    <trkseg>
      <trkpt lat="43.8016" lon="3.5791">
        <ele>285.8</ele>
        <time>2015-11-10T11:37:14Z</time>
      </trkpt>
      <trkpt lat="43.80162" lon="3.57915">
        <ele>285.8</ele>
        <time>2015-11-10T11:37:19Z</time>
      </trkpt>
      <trkpt lat="43.80165" lon="3.57919">
        <ele>281.657810018</ele>
        <time>2015-11-10T11:37:24Z</time>
      </trkpt>
      <trkpt lat="43.80165" lon="3.5792">
        <ele>281.657810018</ele>
        <time>2015-11-10T11:37:29Z</time>
      </trkpt>
      <trkpt lat="43.80168" lon="3.5792">
        <ele>281.657810018</ele>
        <time>2015-11-10T11:37:34Z</time>
      </trkpt>
      <trkpt lat="43.80173" lon="3.57922">
        <ele>281.657810018</ele>
        <time>2015-11-10T11:37:39Z</time>
      </trkpt>
      <trkpt lat="43.80176" lon="3.57925">
        <ele>282.84412969078</ele>
        <time>2015-11-10T11:37:45Z</time>
      </trkpt>
      <trkpt lat="43.80183" lon="3.57926">
        <ele>282.84412969078</ele>
        <time>2015-11-10T11:37:54Z</time>
      </trkpt>
      <trkpt lat="43.80186" lon="3.57925">
        <ele>283.8985167596</ele>
        <time>2015-11-10T11:37:59Z</time>
      </trkpt>
      <trkpt lat="43.80183" lon="3.57918">
        <ele>283.8985167596</ele>
        <time>2015-11-10T11:38:09Z</time>
      </trkpt>
      <trkpt lat="43.80183" lon="3.57914">
        <ele>283.8985167596</ele>
        <time>2015-11-10T11:38:14Z</time>
      </trkpt>
      <trkpt lat="43.80176" lon="3.57888">
        <ele>284.41231316992</ele>
        <time>2015-11-10T11:38:57Z</time>
      </trkpt>
      <trkpt lat="43.8017" lon="3.57881">
        <ele>284.41231316992</ele>
        <time>2015-11-10T11:38:57Z</time>
      </trkpt>
      <trkpt lat="43.80161" lon="3.57873">
        <ele>285.09599641507</ele>
        <time>2015-11-10T11:39:16Z</time>
      </trkpt>
      <trkpt lat="43.80161" lon="3.5787">
        <ele>285.09599641507</ele>
        <time>2015-11-10T11:39:16Z</time>
      </trkpt>
      <trkpt lat="43.80143" lon="3.57824">
        <ele>286.00153173799</ele>
        <time>2015-11-10T11:40:37Z</time>
      </trkpt>
      <trkpt lat="43.80134" lon="3.57814">
        <ele>287.08864494008</ele>
        <time>2015-11-10T11:41:00Z</time>
      </trkpt>
      <trkpt lat="43.8013" lon="3.57811">
        <ele>287.08864494008</ele>
        <time>2015-11-10T11:41:00Z</time>
      </trkpt>
      <trkpt lat="43.8013" lon="3.57811">
        <ele>287.08864494008</ele>
        <time>2015-11-10T11:41:01Z</time>
      </trkpt>
      <trkpt lat="43.8011" lon="3.57749">
        <ele>288.67312851744</ele>
        <time>2015-11-10T11:42:14Z</time>
      </trkpt>
      <trkpt lat="43.80104" lon="3.57732">
        <ele>290.70451274704</ele>
        <time>2015-11-10T11:43:00Z</time>
      </trkpt>
      <trkpt lat="43.80103" lon="3.57741">
        <ele>290.70451274704</ele>
        <time>2015-11-10T11:43:31Z</time>
      </trkpt>
      <trkpt lat="43.80102" lon="3.57742">
        <ele>290.70451274704</ele>
        <time>2015-11-10T11:46:14Z</time>
      </trkpt>
      <trkpt lat="43.80103" lon="3.57742">
        <ele>290.70451274704</ele>
        <time>2015-11-10T11:46:31Z</time>
      </trkpt>
      <trkpt lat="43.80125" lon="3.57684">
        <ele>294.89777375467</ele>
        <time>2015-11-10T11:48:34Z</time>
      </trkpt>
      <trkpt lat="43.80127" lon="3.57679">
        <ele>294.89777375467</ele>
        <time>2015-11-10T11:48:39Z</time>
      </trkpt>
      <trkpt lat="43.80127" lon="3.57672">
        <ele>298.58514814194</ele>
        <time>2015-11-10T11:48:55Z</time>
      </trkpt>
      <trkpt lat="43.80127" lon="3.57661">
        <ele>298.58514814194</ele>
        <time>2015-11-10T11:48:55Z</time>
      </trkpt>
      <trkpt lat="43.8013" lon="3.57648">
        <ele>301.87008978983</ele>
        <time>2015-11-10T11:49:11Z</time>
      </trkpt>
      <trkpt lat="43.8013" lon="3.57647">
        <ele>301.87008978983</ele>
        <time>2015-11-10T11:49:11Z</time>
      </trkpt>
      <trkpt lat="43.8013" lon="3.57646">
        <ele>301.87008978983</ele>
        <time>2015-11-10T11:49:24Z</time>
      </trkpt>
      <trkpt lat="43.80126" lon="3.57606">
        <ele>305.11280189784</ele>
        <time>2015-11-10T11:50:17Z</time>
      </trkpt>
      <trkpt lat="43.80125" lon="3.57603">
        <ele>305.11280189784</ele>
        <time>2015-11-10T11:50:38Z</time>
      </trkpt>
      <trkpt lat="43.80124" lon="3.57596">
        <ele>305.11280189784</ele>
        <time>2015-11-10T11:50:54Z</time>
      </trkpt>
      <trkpt lat="43.80124" lon="3.57592">
        <ele>308.29459906261</ele>
        <time>2015-11-10T11:50:59Z</time>
      </trkpt>
      <trkpt lat="43.80123" lon="3.57584">
        <ele>308.29459906261</ele>
        <time>2015-11-10T11:51:09Z</time>
      </trkpt>
      <trkpt lat="43.8012" lon="3.57579">
        <ele>311.08457428621</ele>
        <time>2015-11-10T11:51:14Z</time>
      </trkpt>
      <trkpt lat="43.80118" lon="3.57569">
        <ele>311.08457428621</ele>
        <time>2015-11-10T11:51:24Z</time>
      </trkpt>
      <trkpt lat="43.80116" lon="3.57563">
        <ele>313.53708120947</ele>
        <time>2015-11-10T11:51:29Z</time>
      </trkpt>
      <trkpt lat="43.8011" lon="3.57541">
        <ele>315.95150768808</ele>
        <time>2015-11-10T11:52:09Z</time>
      </trkpt>
      <trkpt lat="43.80106" lon="3.57533">
        <ele>315.95150768808</ele>
        <time>2015-11-10T11:53:27Z</time>
      </trkpt>
      <trkpt lat="43.80107" lon="3.5752">
        <ele>319.09392704087</ele>
        <time>2015-11-10T11:53:31Z</time>
      </trkpt>
      <trkpt lat="43.80105" lon="3.57509">
        <ele>319.09392704087</ele>
        <time>2015-11-10T11:53:56Z</time>
      </trkpt>
      <trkpt lat="43.80106" lon="3.5751">
        <ele>322.19693827058</ele>
        <time>2015-11-10T11:53:56Z</time>
      </trkpt>
      <trkpt lat="43.80106" lon="3.5751">
        <ele>322.19693827058</ele>
        <time>2015-11-10T11:54:21Z</time>
      </trkpt>
      <trkpt lat="43.80103" lon="3.57509">
        <ele>322.19693827058</ele>
        <time>2015-11-10T11:54:21Z</time>
      </trkpt>
      <trkpt lat="43.80089" lon="3.57477">
        <ele>325.54581881293</ele>
        <time>2015-11-10T11:55:10Z</time>
      </trkpt>
      <trkpt lat="43.80089" lon="3.57469">
        <ele>325.54581881293</ele>
        <time>2015-11-10T11:55:11Z</time>
      </trkpt>
      <trkpt lat="43.80079" lon="3.57447">
        <ele>328.83188421683</ele>
        <time>2015-11-10T11:55:58Z</time>
      </trkpt>
      <trkpt lat="43.8007" lon="3.57427">
        <ele>331.96937746216</ele>
        <time>2015-11-10T11:56:20Z</time>
      </trkpt>
      <trkpt lat="43.80067" lon="3.57424">
        <ele>331.96937746216</ele>
        <time>2015-11-10T11:56:20Z</time>
      </trkpt>
      <trkpt lat="43.80057" lon="3.57401">
        <ele>335.24393864382</ele>
        <time>2015-11-10T11:57:00Z</time>
      </trkpt>
      <trkpt lat="43.80052" lon="3.57395">
        <ele>335.24393864382</ele>
        <time>2015-11-10T11:57:26Z</time>
      </trkpt>
      <trkpt lat="43.80041" lon="3.57383">
        <ele>338.9492388551</ele>
        <time>2015-11-10T11:58:38Z</time>
      </trkpt>
      <trkpt lat="43.80031" lon="3.57371">
        <ele>342.74526359383</ele>
        <time>2015-11-10T12:00:03Z</time>
      </trkpt>
      <trkpt lat="43.80039" lon="3.57379">
        <ele>346.1602194151</ele>
        <time>2015-11-10T12:00:24Z</time>
      </trkpt>
      <trkpt lat="43.80053" lon="3.57385">
        <ele>349.145935664</ele>
        <time>2015-11-10T12:00:38Z</time>
      </trkpt>
      <trkpt lat="43.80054" lon="3.57386">
        <ele>349.145935664</ele>
        <time>2015-11-10T12:00:39Z</time>
      </trkpt>
      <trkpt lat="43.80066" lon="3.57389">
        <ele>351.74263087829</ele>
        <time>2015-11-10T12:01:00Z</time>
      </trkpt>
      <trkpt lat="43.80067" lon="3.5739">
        <ele>351.74263087829</ele>
        <time>2015-11-10T12:01:00Z</time>
      </trkpt>
      <trkpt lat="43.80089" lon="3.57408">
        <ele>355.41424642762</ele>
        <time>2015-11-10T12:02:56Z</time>
      </trkpt>
      <trkpt lat="43.80088" lon="3.57402">
        <ele>355.41424642762</ele>
        <time>2015-11-10T12:02:56Z</time>
      </trkpt>
      <trkpt lat="43.80088" lon="3.57387">
        <ele>358.97816771712</ele>
        <time>2015-11-10T12:03:34Z</time>
      </trkpt>
      <trkpt lat="43.80102" lon="3.57413">
        <ele>362.49725562528</ele>
        <time>2015-11-10T12:03:55Z</time>
      </trkpt>
      <trkpt lat="43.80104" lon="3.57414">
        <ele>362.49725562528</ele>
        <time>2015-11-10T12:04:03Z</time>
      </trkpt>
      <trkpt lat="43.80108" lon="3.57419">
        <ele>362.49725562528</ele>
        <time>2015-11-10T12:04:46Z</time>
      </trkpt>
      <trkpt lat="43.80109" lon="3.57433">
        <ele>367.44411432814</ele>
        <time>2015-11-10T12:06:02Z</time>
      </trkpt>
      <trkpt lat="43.80109" lon="3.57425">
        <ele>367.44411432814</ele>
        <time>2015-11-10T12:06:50Z</time>
      </trkpt>
      <trkpt lat="43.80108" lon="3.5742">
        <ele>372.50482773672</ele>
        <time>2015-11-10T12:06:59Z</time>
      </trkpt>
      <trkpt lat="43.80111" lon="3.57396">
        <ele>377.09839484908</ele>
        <time>2015-11-10T12:07:39Z</time>
      </trkpt>
      <trkpt lat="43.80108" lon="3.57382">
        <ele>381.29367000355</ele>
        <time>2015-11-10T12:08:03Z</time>
      </trkpt>
      <trkpt lat="43.80109" lon="3.5738">
        <ele>381.29367000355</ele>
        <time>2015-11-10T12:08:03Z</time>
      </trkpt>
      <trkpt lat="43.80126" lon="3.5741">
        <ele>385.8126821298</ele>
        <time>2015-11-10T12:09:10Z</time>
      </trkpt>
      <trkpt lat="43.80129" lon="3.57411">
        <ele>385.8126821298</ele>
        <time>2015-11-10T12:09:10Z</time>
      </trkpt>
      <trkpt lat="43.80133" lon="3.57413">
        <ele>385.8126821298</ele>
        <time>2015-11-10T12:09:18Z</time>
      </trkpt>
      <trkpt lat="43.80127" lon="3.57352">
        <ele>390.54725235172</ele>
        <time>2015-11-10T12:10:55Z</time>
      </trkpt>
      <trkpt lat="43.80129" lon="3.57355">
        <ele>390.54725235172</ele>
        <time>2015-11-10T12:11:00Z</time>
      </trkpt>
      <trkpt lat="43.80145" lon="3.57373">
        <ele>395.30958654341</ele>
        <time>2015-11-10T12:11:29Z</time>
      </trkpt>
      <trkpt lat="43.80149" lon="3.57376">
        <ele>395.30958654341</ele>
        <time>2015-11-10T12:11:34Z</time>
      </trkpt>
      <trkpt lat="43.80156" lon="3.57379">
        <ele>399.79275573219</ele>
        <time>2015-11-10T12:11:44Z</time>
      </trkpt>
      <trkpt lat="43.8016" lon="3.57379">
        <ele>399.79275573219</ele>
        <time>2015-11-10T12:11:49Z</time>
      </trkpt>
      <trkpt lat="43.80165" lon="3.5738">
        <ele>404.06504508399</ele>
        <time>2015-11-10T12:11:59Z</time>
      </trkpt>
      <trkpt lat="43.80167" lon="3.57381">
        <ele>404.06504508399</ele>
        <time>2015-11-10T12:12:14Z</time>
      </trkpt>
      <trkpt lat="43.8017" lon="3.57382">
        <ele>404.06504508399</ele>
        <time>2015-11-10T12:12:19Z</time>
      </trkpt>
      <trkpt lat="43.80178" lon="3.57383">
        <ele>408.49605485062</ele>
        <time>2015-11-10T12:12:35Z</time>
      </trkpt>
      <trkpt lat="43.8018" lon="3.57384">
        <ele>408.49605485062</ele>
        <time>2015-11-10T12:12:40Z</time>
      </trkpt>
      <trkpt lat="43.80183" lon="3.5739">
        <ele>408.49605485062</ele>
        <time>2015-11-10T12:12:49Z</time>
      </trkpt>
      <trkpt lat="43.80187" lon="3.57391">
        <ele>412.88280535089</ele>
        <time>2015-11-10T12:12:54Z</time>
      </trkpt>
      <trkpt lat="43.80186" lon="3.57383">
        <ele>412.88280535089</ele>
        <time>2015-11-10T12:13:04Z</time>
      </trkpt>
      <trkpt lat="43.80184" lon="3.57379">
        <ele>417.28234773566</ele>
        <time>2015-11-10T12:13:09Z</time>
      </trkpt>
      <trkpt lat="43.80181" lon="3.57367">
        <ele>421.27692613209</ele>
        <time>2015-11-10T12:13:26Z</time>
      </trkpt>
      <trkpt lat="43.80179" lon="3.57365">
        <ele>421.27692613209</ele>
        <time>2015-11-10T12:13:26Z</time>
      </trkpt>
      <trkpt lat="43.80182" lon="3.57354">
        <ele>425.63086379422</ele>
        <time>2015-11-10T12:14:16Z</time>
      </trkpt>
      <trkpt lat="43.80183" lon="3.57354">
        <ele>425.63086379422</ele>
        <time>2015-11-10T12:14:17Z</time>
      </trkpt>
      <trkpt lat="43.80185" lon="3.57355">
        <ele>425.63086379422</ele>
        <time>2015-11-10T12:14:25Z</time>
      </trkpt>
      <trkpt lat="43.80189" lon="3.57355">
        <ele>425.63086379422</ele>
        <time>2015-11-10T12:14:25Z</time>
      </trkpt>
      <trkpt lat="43.80207" lon="3.57375">
        <ele>430.19907513482</ele>
        <time>2015-11-10T12:14:54Z</time>
      </trkpt>
      <trkpt lat="43.80192" lon="3.57308">
        <ele>436.66876613344</ele>
        <time>2015-11-10T12:18:11Z</time>
      </trkpt>
      <trkpt lat="43.80192" lon="3.5731">
        <ele>436.66876613344</ele>
        <time>2015-11-10T12:18:11Z</time>
      </trkpt>
      <trkpt lat="43.80215" lon="3.57316">
        <ele>442.8140641273</ele>
        <time>2015-11-10T12:18:45Z</time>
      </trkpt>
      <trkpt lat="43.80221" lon="3.57319">
        <ele>442.8140641273</ele>
        <time>2015-11-10T12:18:52Z</time>
      </trkpt>
      <trkpt lat="43.80225" lon="3.57322">
        <ele>448.36101199198</ele>
        <time>2015-11-10T12:19:10Z</time>
      </trkpt>
      <trkpt lat="43.80242" lon="3.57343">
        <ele>453.51066413495</ele>
        <time>2015-11-10T12:19:35Z</time>
      </trkpt>
      <trkpt lat="43.80255" lon="3.57345">
        <ele>458.31715268241</ele>
        <time>2015-11-10T12:20:00Z</time>
      </trkpt>
      <trkpt lat="43.80259" lon="3.57349">
        <ele>458.31715268241</ele>
        <time>2015-11-10T12:20:00Z</time>
      </trkpt>
      <trkpt lat="43.8028" lon="3.57359">
        <ele>462.83308501809</ele>
        <time>2015-11-10T12:20:19Z</time>
      </trkpt>
      <trkpt lat="43.80372" lon="3.57374">
        <ele>469.53956057393</ele>
        <time>2015-11-10T12:22:31Z</time>
      </trkpt>
      <trkpt lat="43.8039" lon="3.57382">
        <ele>475.58629684099</ele>
        <time>2015-11-10T12:22:48Z</time>
      </trkpt>
      <trkpt lat="43.80446" lon="3.57394">
        <ele>482.05813461052</ele>
        <time>2015-11-10T12:23:38Z</time>
      </trkpt>
      <trkpt lat="43.80546" lon="3.5739">
        <ele>489.7560998038</ele>
        <time>2015-11-10T12:25:45Z</time>
      </trkpt>
      <trkpt lat="43.80604" lon="3.57429">
        <ele>497.72833301898</ele>
        <time>2015-11-10T12:26:49Z</time>
      </trkpt>
      <trkpt lat="43.80609" lon="3.57432">
        <ele>497.72833301898</ele>
        <time>2015-11-10T12:26:54Z</time>
      </trkpt>
      <trkpt lat="43.80639" lon="3.57432">
        <ele>505.04068671355</ele>
        <time>2015-11-10T12:27:30Z</time>
      </trkpt>
      <trkpt lat="43.80667" lon="3.57427">
        <ele>512.50075900281</ele>
        <time>2015-11-10T12:28:04Z</time>
      </trkpt>
      <trkpt lat="43.80673" lon="3.57426">
        <ele>512.50075900281</ele>
        <time>2015-11-10T12:28:04Z</time>
      </trkpt>
      <trkpt lat="43.80695" lon="3.57423">
        <ele>519.90804501444</ele>
        <time>2015-11-10T12:28:46Z</time>
      </trkpt>
      <trkpt lat="43.80702" lon="3.5742">
        <ele>519.90804501444</ele>
        <time>2015-11-10T12:28:46Z</time>
      </trkpt>
      <trkpt lat="43.80712" lon="3.57417">
        <ele>526.84118122683</ele>
        <time>2015-11-10T12:29:00Z</time>
      </trkpt>
      <trkpt lat="43.80779" lon="3.57413">
        <ele>534.7880704238</ele>
        <time>2015-11-10T12:30:18Z</time>
      </trkpt>
      <trkpt lat="43.80805" lon="3.57406">
        <ele>542.04103738965</ele>
        <time>2015-11-10T12:30:49Z</time>
      </trkpt>
      <trkpt lat="43.80808" lon="3.57406">
        <ele>542.04103738965</ele>
        <time>2015-11-10T12:30:58Z</time>
      </trkpt>
      <trkpt lat="43.80905" lon="3.57319">
        <ele>551.28090770442</ele>
        <time>2015-11-10T12:33:20Z</time>
      </trkpt>
      <trkpt lat="43.80907" lon="3.57317">
        <ele>551.28090770442</ele>
        <time>2015-11-10T12:33:20Z</time>
      </trkpt>
      <trkpt lat="43.80932" lon="3.5726">
        <ele>560.03336162907</ele>
        <time>2015-11-10T12:34:26Z</time>
      </trkpt>
      <trkpt lat="43.80934" lon="3.57253">
        <ele>560.03336162907</ele>
        <time>2015-11-10T12:34:27Z</time>
      </trkpt>
      <trkpt lat="43.80948" lon="3.57237">
        <ele>568.09205249883</ele>
        <time>2015-11-10T12:34:59Z</time>
      </trkpt>
      <trkpt lat="43.80954" lon="3.57231">
        <ele>568.09205249883</ele>
        <time>2015-11-10T12:34:59Z</time>
      </trkpt>
      <trkpt lat="43.80985" lon="3.57199">
        <ele>575.94494082654</ele>
        <time>2015-11-10T12:36:03Z</time>
      </trkpt>
      <trkpt lat="43.80997" lon="3.57204">
        <ele>583.04437238652</ele>
        <time>2015-11-10T12:36:29Z</time>
      </trkpt>
      <trkpt lat="43.81005" lon="3.57205">
        <ele>583.04437238652</ele>
        <time>2015-11-10T12:36:29Z</time>
      </trkpt>
      <trkpt lat="43.81006" lon="3.57185">
        <ele>589.63506045123</ele>
        <time>2015-11-10T12:36:54Z</time>
      </trkpt>
      <trkpt lat="43.81005" lon="3.57152">
        <ele>595.8555424994</ele>
        <time>2015-11-10T12:37:35Z</time>
      </trkpt>
      <trkpt lat="43.81008" lon="3.57095">
        <ele>602.08176050506</ele>
        <time>2015-11-10T12:38:47Z</time>
      </trkpt>
      <trkpt lat="43.81009" lon="3.57084">
        <ele>602.08176050506</ele>
        <time>2015-11-10T12:39:05Z</time>
      </trkpt>
      <trkpt lat="43.81007" lon="3.57081">
        <ele>607.51083379777</ele>
        <time>2015-11-10T12:39:09Z</time>
      </trkpt>
      <trkpt lat="43.80998" lon="3.57053">
        <ele>612.34964073572</ele>
        <time>2015-11-10T12:39:44Z</time>
      </trkpt>
      <trkpt lat="43.80995" lon="3.57031">
        <ele>616.52911970698</ele>
        <time>2015-11-10T12:39:55Z</time>
      </trkpt>
      <trkpt lat="43.80995" lon="3.57026">
        <ele>616.52911970698</ele>
        <time>2015-11-10T12:39:58Z</time>
      </trkpt>
      <trkpt lat="43.80976" lon="3.56961">
        <ele>620.69714760798</ele>
        <time>2015-11-10T12:41:08Z</time>
      </trkpt>
      <trkpt lat="43.80975" lon="3.56955">
        <ele>620.69714760798</ele>
        <time>2015-11-10T12:41:09Z</time>
      </trkpt>
      <trkpt lat="43.80967" lon="3.56871">
        <ele>625.33567794153</ele>
        <time>2015-11-10T12:42:56Z</time>
      </trkpt>
      <trkpt lat="43.80968" lon="3.5687">
        <ele>625.33567794153</ele>
        <time>2015-11-10T12:42:59Z</time>
      </trkpt>
      <trkpt lat="43.80965" lon="3.56854">
        <ele>629.39912059711</ele>
        <time>2015-11-10T12:43:19Z</time>
      </trkpt>
      <trkpt lat="43.80961" lon="3.56852">
        <ele>629.39912059711</ele>
        <time>2015-11-10T12:43:19Z</time>
      </trkpt>
      <trkpt lat="43.80959" lon="3.56847">
        <ele>629.39912059711</ele>
        <time>2015-11-10T12:43:36Z</time>
      </trkpt>
      <trkpt lat="43.80957" lon="3.56845">
        <ele>632.97850209626</ele>
        <time>2015-11-10T12:43:36Z</time>
      </trkpt>
      <trkpt lat="43.80962" lon="3.56804">
        <ele>636.21697117488</ele>
        <time>2015-11-10T12:44:34Z</time>
      </trkpt>
      <trkpt lat="43.80961" lon="3.56788">
        <ele>638.8580383678</ele>
        <time>2015-11-10T12:44:34Z</time>
      </trkpt>
      <trkpt lat="43.80953" lon="3.56774">
        <ele>641.12787671733</ele>
        <time>2015-11-10T12:44:51Z</time>
      </trkpt>
      <trkpt lat="43.80949" lon="3.56772">
        <ele>641.12787671733</ele>
        <time>2015-11-10T12:45:09Z</time>
      </trkpt>
      <trkpt lat="43.80918" lon="3.56778">
        <ele>643.19346211349</ele>
        <time>2015-11-10T12:46:18Z</time>
      </trkpt>
      <trkpt lat="43.80907" lon="3.56794">
        <ele>644.86377943125</ele>
        <time>2015-11-10T12:47:09Z</time>
      </trkpt>
      <trkpt lat="43.80909" lon="3.56791">
        <ele>644.86377943125</ele>
        <time>2015-11-10T12:47:19Z</time>
      </trkpt>
      <trkpt lat="43.80924" lon="3.56779">
        <ele>646.3956919928</ele>
        <time>2015-11-10T12:48:28Z</time>
      </trkpt>
      <trkpt lat="43.80929" lon="3.56776">
        <ele>646.3956919928</ele>
        <time>2015-11-10T12:48:28Z</time>
      </trkpt>
      <trkpt lat="43.8093" lon="3.5676">
        <ele>647.78229671264</ele>
        <time>2015-11-10T12:49:00Z</time>
      </trkpt>
      <trkpt lat="43.80923" lon="3.56743">
        <ele>648.88781182765</ele>
        <time>2015-11-10T12:49:44Z</time>
      </trkpt>
      <trkpt lat="43.80915" lon="3.56732">
        <ele>649.87551326657</ele>
        <time>2015-11-10T12:50:57Z</time>
      </trkpt>
      <trkpt lat="43.80914" lon="3.56726">
        <ele>649.87551326657</ele>
        <time>2015-11-10T12:51:00Z</time>
      </trkpt>
      <trkpt lat="43.80912" lon="3.56717">
        <ele>650.49319110055</ele>
        <time>2015-11-10T12:51:09Z</time>
      </trkpt>
      <trkpt lat="43.80913" lon="3.56708">
        <ele>650.49319110055</ele>
        <time>2015-11-10T12:51:15Z</time>
      </trkpt>
      <trkpt lat="43.80921" lon="3.56676">
        <ele>650.89733346546</ele>
        <time>2015-11-10T12:52:01Z</time>
      </trkpt>
      <trkpt lat="43.80921" lon="3.56673">
        <ele>650.89733346546</ele>
        <time>2015-11-10T12:52:04Z</time>
      </trkpt>
      <trkpt lat="43.80924" lon="3.56656">
        <ele>651.10358854839</ele>
        <time>2015-11-10T12:52:19Z</time>
      </trkpt>
      <trkpt lat="43.80926" lon="3.56656">
        <ele>651.10358854839</ele>
        <time>2015-11-10T12:52:34Z</time>
      </trkpt>
      <trkpt lat="43.80927" lon="3.5665">
        <ele>651.10358854839</ele>
        <time>2015-11-10T12:52:40Z</time>
      </trkpt>
      <trkpt lat="43.8093" lon="3.56649">
        <ele>651.18447661972</ele>
        <time>2015-11-10T12:52:44Z</time>
      </trkpt>
      <trkpt lat="43.80958" lon="3.56648">
        <ele>651.1928882832</ele>
        <time>2015-11-10T12:53:43Z</time>
      </trkpt>
      <trkpt lat="43.80946" lon="3.56659">
        <ele>651.39408190539</ele>
        <time>2015-11-10T12:55:04Z</time>
      </trkpt>
      <trkpt lat="43.80943" lon="3.56656">
        <ele>651.39408190539</ele>
        <time>2015-11-10T12:55:09Z</time>
      </trkpt>
      <trkpt lat="43.80932" lon="3.56623">
        <ele>651.34077052005</ele>
        <time>2015-11-10T12:56:06Z</time>
      </trkpt>
      <trkpt lat="43.80928" lon="3.56607">
        <ele>651.36882935222</ele>
        <time>2015-11-10T12:57:18Z</time>
      </trkpt>
      <trkpt lat="43.80936" lon="3.5656">
        <ele>651.08217783679</ele>
        <time>2015-11-10T12:57:51Z</time>
      </trkpt>
      <trkpt lat="43.80937" lon="3.56548">
        <ele>651.08217783679</ele>
        <time>2015-11-10T12:57:51Z</time>
      </trkpt>
      <trkpt lat="43.80935" lon="3.56519">
        <ele>650.6912679744</ele>
        <time>2015-11-10T12:58:24Z</time>
      </trkpt>
      <trkpt lat="43.80935" lon="3.56503">
        <ele>650.18907576907</ele>
        <time>2015-11-10T12:58:24Z</time>
      </trkpt>
      <trkpt lat="43.80924" lon="3.56472">
        <ele>649.78537104579</ele>
        <time>2015-11-10T12:58:48Z</time>
      </trkpt>
      <trkpt lat="43.80914" lon="3.56457">
        <ele>649.34205406891</ele>
        <time>2015-11-10T12:59:04Z</time>
      </trkpt>
      <trkpt lat="43.8091" lon="3.56446">
        <ele>649.34205406891</ele>
        <time>2015-11-10T12:59:14Z</time>
      </trkpt>
      <trkpt lat="43.80901" lon="3.56423">
        <ele>648.90395415276</ele>
        <time>2015-11-10T12:59:30Z</time>
      </trkpt>
      <trkpt lat="43.8089" lon="3.56399">
        <ele>648.56985285802</ele>
        <time>2015-11-10T13:00:00Z</time>
      </trkpt>
      <trkpt lat="43.80889" lon="3.56394">
        <ele>648.56985285802</ele>
        <time>2015-11-10T13:00:00Z</time>
      </trkpt>
      <trkpt lat="43.80888" lon="3.56386">
        <ele>648.18532621503</ele>
        <time>2015-11-10T13:00:17Z</time>
      </trkpt>
      <trkpt lat="43.80884" lon="3.56377">
        <ele>648.18532621503</ele>
        <time>2015-11-10T13:00:25Z</time>
      </trkpt>
      <trkpt lat="43.80879" lon="3.56367">
        <ele>647.75125199193</ele>
        <time>2015-11-10T13:00:25Z</time>
      </trkpt>
      <trkpt lat="43.80876" lon="3.56343">
        <ele>647.22487415871</ele>
        <time>2015-11-10T13:00:55Z</time>
      </trkpt>
      <trkpt lat="43.80869" lon="3.56321">
        <ele>646.62409484749</ele>
        <time>2015-11-10T13:01:20Z</time>
      </trkpt>
      <trkpt lat="43.80813" lon="3.56285">
        <ele>645.22975963555</ele>
        <time>2015-11-10T13:02:24Z</time>
      </trkpt>
      <trkpt lat="43.80782" lon="3.5628">
        <ele>643.5888503796</ele>
        <time>2015-11-10T13:02:49Z</time>
      </trkpt>
      <trkpt lat="43.80778" lon="3.56276">
        <ele>643.5888503796</ele>
        <time>2015-11-10T13:03:02Z</time>
      </trkpt>
      <trkpt lat="43.80775" lon="3.56271">
        <ele>641.89105407006</ele>
        <time>2015-11-10T13:03:04Z</time>
      </trkpt>
      <trkpt lat="43.80775" lon="3.56264">
        <ele>641.89105407006</ele>
        <time>2015-11-10T13:03:24Z</time>
      </trkpt>
      <trkpt lat="43.80769" lon="3.56265">
        <ele>640.29737388655</ele>
        <time>2015-11-10T13:03:39Z</time>
      </trkpt>
      <trkpt lat="43.80743" lon="3.56255">
        <ele>638.84085719323</ele>
        <time>2015-11-10T13:04:04Z</time>
      </trkpt>
      <trkpt lat="43.8073" lon="3.5626">
        <ele>637.47919079586</ele>
        <time>2015-11-10T13:04:24Z</time>
      </trkpt>
      <trkpt lat="43.80717" lon="3.56262">
        <ele>636.20129877663</ele>
        <time>2015-11-10T13:04:39Z</time>
      </trkpt>
      <trkpt lat="43.80694" lon="3.56281">
        <ele>635.1115747134</ele>
        <time>2015-11-10T13:05:17Z</time>
      </trkpt>
      <trkpt lat="43.80669" lon="3.56283">
        <ele>634.19042975043</ele>
        <time>2015-11-10T13:06:10Z</time>
      </trkpt>
      <trkpt lat="43.80631" lon="3.56273">
        <ele>633.49089191289</ele>
        <time>2015-11-10T13:07:00Z</time>
      </trkpt>
      <trkpt lat="43.80624" lon="3.56266">
        <ele>632.90248135788</ele>
        <time>2015-11-10T13:07:00Z</time>
      </trkpt>
      <trkpt lat="43.80596" lon="3.56238">
        <ele>632.71131608589</ele>
        <time>2015-11-10T13:07:34Z</time>
      </trkpt>
      <trkpt lat="43.80595" lon="3.56239">
        <ele>632.71131608589</ele>
        <time>2015-11-10T13:07:39Z</time>
      </trkpt>
      <trkpt lat="43.80569" lon="3.5624">
        <ele>633.29626069214</ele>
        <time>2015-11-10T13:08:17Z</time>
      </trkpt>
      <trkpt lat="43.80565" lon="3.56239">
        <ele>633.29626069214</ele>
        <time>2015-11-10T13:08:17Z</time>
      </trkpt>
      <trkpt lat="43.8056" lon="3.56232">
        <ele>634.08330281203</ele>
        <time>2015-11-10T13:08:42Z</time>
      </trkpt>
      <trkpt lat="43.80537" lon="3.56227">
        <ele>635.05860892552</ele>
        <time>2015-11-10T13:09:07Z</time>
      </trkpt>
      <trkpt lat="43.80535" lon="3.56198">
        <ele>636.10761459556</ele>
        <time>2015-11-10T13:10:33Z</time>
      </trkpt>
      <trkpt lat="43.80533" lon="3.5619">
        <ele>636.10761459556</ele>
        <time>2015-11-10T13:10:50Z</time>
      </trkpt>
      <trkpt lat="43.80525" lon="3.56182">
        <ele>637.08042777501</ele>
        <time>2015-11-10T13:11:34Z</time>
      </trkpt>
      <trkpt lat="43.80528" lon="3.56185">
        <ele>637.08042777501</ele>
        <time>2015-11-10T13:11:34Z</time>
      </trkpt>
      <trkpt lat="43.80531" lon="3.56172">
        <ele>638.02546090494</ele>
        <time>2015-11-10T13:11:53Z</time>
      </trkpt>
      <trkpt lat="43.80531" lon="3.56172">
        <ele>638.02546090494</ele>
        <time>2015-11-10T13:11:58Z</time>
      </trkpt>
      <trkpt lat="43.80517" lon="3.56146">
        <ele>638.71355424847</ele>
        <time>2015-11-10T13:12:54Z</time>
      </trkpt>
      <trkpt lat="43.80511" lon="3.56143">
        <ele>638.71355424847</ele>
        <time>2015-11-10T13:12:55Z</time>
      </trkpt>
      <trkpt lat="43.80475" lon="3.56133">
        <ele>639.59580624408</ele>
        <time>2015-11-10T13:13:31Z</time>
      </trkpt>
      <trkpt lat="43.80443" lon="3.56119">
        <ele>640.46969546912</ele>
        <time>2015-11-10T13:14:16Z</time>
      </trkpt>
      <trkpt lat="43.80432" lon="3.56115">
        <ele>641.33475337874</ele>
        <time>2015-11-10T13:14:16Z</time>
      </trkpt>
      <trkpt lat="43.80417" lon="3.56109">
        <ele>642.17597391489</ele>
        <time>2015-11-10T13:14:41Z</time>
      </trkpt>
      <trkpt lat="43.80399" lon="3.56108">
        <ele>643.05140951388</ele>
        <time>2015-11-10T13:14:58Z</time>
      </trkpt>
      <trkpt lat="43.80392" lon="3.56106">
        <ele>643.05140951388</ele>
        <time>2015-11-10T13:14:59Z</time>
      </trkpt>
      <trkpt lat="43.80388" lon="3.56106">
        <ele>643.97136737814</ele>
        <time>2015-11-10T13:15:06Z</time>
      </trkpt>
      <trkpt lat="43.80385" lon="3.56104">
        <ele>643.97136737814</ele>
        <time>2015-11-10T13:16:00Z</time>
      </trkpt>
      <trkpt lat="43.80294" lon="3.56046">
        <ele>646.08363001646</ele>
        <time>2015-11-10T13:16:41Z</time>
      </trkpt>
      <trkpt lat="43.80293" lon="3.56044">
        <ele>646.08363001646</ele>
        <time>2015-11-10T13:16:42Z</time>
      </trkpt>
      <trkpt lat="43.80275" lon="3.56024">
        <ele>648.37298536218</ele>
        <time>2015-11-10T13:17:04Z</time>
      </trkpt>
      <trkpt lat="43.80262" lon="3.56015">
        <ele>650.67642069018</ele>
        <time>2015-11-10T13:17:23Z</time>
      </trkpt>
      <trkpt lat="43.80254" lon="3.56014">
        <ele>650.67642069018</ele>
        <time>2015-11-10T13:17:23Z</time>
      </trkpt>
      <trkpt lat="43.80248" lon="3.56007">
        <ele>653.00131355356</ele>
        <time>2015-11-10T13:17:30Z</time>
      </trkpt>
      <trkpt lat="43.80199" lon="3.55935">
        <ele>655.67144279066</ele>
        <time>2015-11-10T13:18:42Z</time>
      </trkpt>
      <trkpt lat="43.80195" lon="3.55923">
        <ele>658.23642474702</ele>
        <time>2015-11-10T13:18:42Z</time>
      </trkpt>
      <trkpt lat="43.80188" lon="3.55897">
        <ele>660.66835913575</ele>
        <time>2015-11-10T13:18:58Z</time>
      </trkpt>
      <trkpt lat="43.80187" lon="3.55896">
        <ele>660.66835913575</ele>
        <time>2015-11-10T13:18:59Z</time>
      </trkpt>
      <trkpt lat="43.80204" lon="3.55888">
        <ele>662.68238236961</ele>
        <time>2015-11-10T13:20:36Z</time>
      </trkpt>
      <trkpt lat="43.80209" lon="3.55891">
        <ele>662.68238236961</ele>
        <time>2015-11-10T13:20:36Z</time>
      </trkpt>
      <trkpt lat="43.80214" lon="3.55897">
        <ele>664.34722564612</ele>
        <time>2015-11-10T13:21:08Z</time>
      </trkpt>
      <trkpt lat="43.80215" lon="3.55897">
        <ele>664.34722564612</ele>
        <time>2015-11-10T13:21:25Z</time>
      </trkpt>
      <trkpt lat="43.80206" lon="3.5588">
        <ele>665.5690741796</ele>
        <time>2015-11-10T13:22:07Z</time>
      </trkpt>
      <trkpt lat="43.80198" lon="3.55881">
        <ele>665.5690741796</ele>
        <time>2015-11-10T13:22:07Z</time>
      </trkpt>
      <trkpt lat="43.80187" lon="3.55878">
        <ele>666.65141407346</ele>
        <time>2015-11-10T13:22:24Z</time>
      </trkpt>
      <trkpt lat="43.8018" lon="3.55875">
        <ele>666.65141407346</ele>
        <time>2015-11-10T13:22:24Z</time>
      </trkpt>
      <trkpt lat="43.80167" lon="3.5587">
        <ele>667.45796076742</ele>
        <time>2015-11-10T13:22:38Z</time>
      </trkpt>
      <trkpt lat="43.80166" lon="3.55869">
        <ele>667.45796076742</ele>
        <time>2015-11-10T13:22:38Z</time>
      </trkpt>
      <trkpt lat="43.80165" lon="3.55868">
        <ele>667.45796076742</ele>
        <time>2015-11-10T13:22:39Z</time>
      </trkpt>
      <trkpt lat="43.80153" lon="3.55844">
        <ele>668.26680169885</ele>
        <time>2015-11-10T13:22:59Z</time>
      </trkpt>
      <trkpt lat="43.80127" lon="3.55819">
        <ele>669.58065275614</ele>
        <time>2015-11-10T13:23:34Z</time>
      </trkpt>
      <trkpt lat="43.80099" lon="3.55733">
        <ele>672.19541866996</ele>
        <time>2015-11-10T13:25:42Z</time>
      </trkpt>
      <trkpt lat="43.801" lon="3.55724">
        <ele>672.19541866996</ele>
        <time>2015-11-10T13:25:50Z</time>
      </trkpt>
      <trkpt lat="43.80101" lon="3.5572">
        <ele>674.51030163912</ele>
        <time>2015-11-10T13:26:16Z</time>
      </trkpt>
      <trkpt lat="43.80105" lon="3.55675">
        <ele>676.54181904471</ele>
        <time>2015-11-10T13:26:59Z</time>
      </trkpt>
      <trkpt lat="43.80107" lon="3.55639">
        <ele>678.39263084194</ele>
        <time>2015-11-10T13:27:25Z</time>
      </trkpt>
      <trkpt lat="43.80075" lon="3.55603">
        <ele>680.33139979854</ele>
        <time>2015-11-10T13:28:05Z</time>
      </trkpt>
      <trkpt lat="43.80074" lon="3.55601">
        <ele>680.33139979854</ele>
        <time>2015-11-10T13:28:05Z</time>
      </trkpt>
      <trkpt lat="43.80061" lon="3.5558">
        <ele>682.17456685606</ele>
        <time>2015-11-10T13:28:30Z</time>
      </trkpt>
      <trkpt lat="43.80054" lon="3.55574">
        <ele>682.17456685606</ele>
        <time>2015-11-10T13:28:30Z</time>
      </trkpt>
      <trkpt lat="43.80047" lon="3.55568">
        <ele>683.85331558299</ele>
        <time>2015-11-10T13:28:47Z</time>
      </trkpt>
      <trkpt lat="43.80041" lon="3.55553">
        <ele>685.31886962612</ele>
        <time>2015-11-10T13:28:47Z</time>
      </trkpt>
      <trkpt lat="43.8" lon="3.55456">
        <ele>686.78615232839</ele>
        <time>2015-11-10T13:30:04Z</time>
      </trkpt>
      <trkpt lat="43.79992" lon="3.55446">
        <ele>688.13735501714</ele>
        <time>2015-11-10T13:30:04Z</time>
      </trkpt>
      <trkpt lat="43.79979" lon="3.55419">
        <ele>689.50875389697</ele>
        <time>2015-11-10T13:30:30Z</time>
      </trkpt>
      <trkpt lat="43.79955" lon="3.55379">
        <ele>691.04107762582</ele>
        <time>2015-11-10T13:30:59Z</time>
      </trkpt>
      <trkpt lat="43.79944" lon="3.55324">
        <ele>692.74908182748</ele>
        <time>2015-11-10T13:31:48Z</time>
      </trkpt>
      <trkpt lat="43.79952" lon="3.55328">
        <ele>692.74908182748</ele>
        <time>2015-11-10T13:31:53Z</time>
      </trkpt>
      <trkpt lat="43.79984" lon="3.55334">
        <ele>694.42988195185</ele>
        <time>2015-11-10T13:32:19Z</time>
      </trkpt>
      <trkpt lat="43.7999" lon="3.55333">
        <ele>694.42988195185</ele>
        <time>2015-11-10T13:32:24Z</time>
      </trkpt>
      <trkpt lat="43.79995" lon="3.55332">
        <ele>695.75156643209</ele>
        <time>2015-11-10T13:32:29Z</time>
      </trkpt>
      <trkpt lat="43.8" lon="3.55331">
        <ele>695.75156643209</ele>
        <time>2015-11-10T13:32:34Z</time>
      </trkpt>
      <trkpt lat="43.80006" lon="3.55329">
        <ele>696.69594220546</ele>
        <time>2015-11-10T13:32:39Z</time>
      </trkpt>
      <trkpt lat="43.80011" lon="3.55329">
        <ele>696.69594220546</ele>
        <time>2015-11-10T13:32:44Z</time>
      </trkpt>
      <trkpt lat="43.80019" lon="3.55327">
        <ele>697.26172009492</ele>
        <time>2015-11-10T13:32:49Z</time>
      </trkpt>
      <trkpt lat="43.80024" lon="3.55326">
        <ele>697.26172009492</ele>
        <time>2015-11-10T13:32:54Z</time>
      </trkpt>
      <trkpt lat="43.8003" lon="3.55323">
        <ele>697.54973712299</ele>
        <time>2015-11-10T13:32:59Z</time>
      </trkpt>
      <trkpt lat="43.80036" lon="3.5532">
        <ele>697.54973712299</ele>
        <time>2015-11-10T13:33:04Z</time>
      </trkpt>
      <trkpt lat="43.80037" lon="3.55318">
        <ele>697.54973712299</ele>
        <time>2015-11-10T13:33:09Z</time>
      </trkpt>
      <trkpt lat="43.80048" lon="3.55315">
        <ele>697.89927424057</ele>
        <time>2015-11-10T13:33:19Z</time>
      </trkpt>
      <trkpt lat="43.80053" lon="3.55318">
        <ele>697.89927424057</ele>
        <time>2015-11-10T13:33:24Z</time>
      </trkpt>
      <trkpt lat="43.8006" lon="3.55321">
        <ele>698.1346060671</ele>
        <time>2015-11-10T13:33:29Z</time>
      </trkpt>
      <trkpt lat="43.80066" lon="3.55325">
        <ele>698.1346060671</ele>
        <time>2015-11-10T13:33:34Z</time>
      </trkpt>
      <trkpt lat="43.80082" lon="3.55339">
        <ele>698.36711032084</ele>
        <time>2015-11-10T13:33:57Z</time>
      </trkpt>
      <trkpt lat="43.80089" lon="3.55347">
        <ele>698.55592886876</ele>
        <time>2015-11-10T13:33:57Z</time>
      </trkpt>
      <trkpt lat="43.80096" lon="3.55355">
        <ele>698.70660081598</ele>
        <time>2015-11-10T13:34:14Z</time>
      </trkpt>
      <trkpt lat="43.80112" lon="3.5538">
        <ele>698.80998374809</ele>
        <time>2015-11-10T13:34:31Z</time>
      </trkpt>
      <trkpt lat="43.80119" lon="3.55392">
        <ele>698.81452577804</ele>
        <time>2015-11-10T13:34:32Z</time>
      </trkpt>
      <trkpt lat="43.80124" lon="3.55399">
        <ele>698.81452577804</ele>
        <time>2015-11-10T13:34:39Z</time>
      </trkpt>
      <trkpt lat="43.80134" lon="3.55421">
        <ele>698.8024497629</ele>
        <time>2015-11-10T13:34:54Z</time>
      </trkpt>
      <trkpt lat="43.80137" lon="3.55424">
        <ele>698.8024497629</ele>
        <time>2015-11-10T13:35:03Z</time>
      </trkpt>
      <trkpt lat="43.80162" lon="3.55448">
        <ele>699.00850879383</ele>
        <time>2015-11-10T13:35:30Z</time>
      </trkpt>
      <trkpt lat="43.80172" lon="3.55457">
        <ele>699.2893139361</ele>
        <time>2015-11-10T13:35:30Z</time>
      </trkpt>
      <trkpt lat="43.80188" lon="3.55459">
        <ele>699.51178615968</ele>
        <time>2015-11-10T13:35:43Z</time>
      </trkpt>
      <trkpt lat="43.80189" lon="3.55459">
        <ele>699.51178615968</ele>
        <time>2015-11-10T13:35:44Z</time>
      </trkpt>
      <trkpt lat="43.80233" lon="3.55473">
        <ele>699.19248709997</ele>
        <time>2015-11-10T13:36:38Z</time>
      </trkpt>
      <trkpt lat="43.80253" lon="3.5548">
        <ele>699.00905169343</ele>
        <time>2015-11-10T13:36:38Z</time>
      </trkpt>
      <trkpt lat="43.80315" lon="3.55478">
        <ele>699.09894271106</ele>
        <time>2015-11-10T13:37:33Z</time>
      </trkpt>
      <trkpt lat="43.80324" lon="3.55482">
        <ele>699.18520656026</ele>
        <time>2015-11-10T13:37:34Z</time>
      </trkpt>
      <trkpt lat="43.80338" lon="3.55482">
        <ele>698.95355374046</ele>
        <time>2015-11-10T13:38:00Z</time>
      </trkpt>
      <trkpt lat="43.80357" lon="3.55476">
        <ele>698.71888934477</ele>
        <time>2015-11-10T13:38:17Z</time>
      </trkpt>
      <trkpt lat="43.80377" lon="3.55473">
        <ele>698.47030369464</ele>
        <time>2015-11-10T13:38:18Z</time>
      </trkpt>
      <trkpt lat="43.80422" lon="3.55476">
        <ele>697.66445301698</ele>
        <time>2015-11-10T13:38:54Z</time>
      </trkpt>
      <trkpt lat="43.80539" lon="3.55592">
        <ele>697.0387574733</ele>
        <time>2015-11-10T13:41:02Z</time>
      </trkpt>
      <trkpt lat="43.80543" lon="3.55598">
        <ele>697.0387574733</ele>
        <time>2015-11-10T13:41:05Z</time>
      </trkpt>
      <trkpt lat="43.80567" lon="3.55628">
        <ele>695.95006128809</ele>
        <time>2015-11-10T13:41:41Z</time>
      </trkpt>
      <trkpt lat="43.8061" lon="3.55629">
        <ele>694.59627967022</ele>
        <time>2015-11-10T13:42:36Z</time>
      </trkpt>
      <trkpt lat="43.80642" lon="3.55623">
        <ele>693.16143793935</ele>
        <time>2015-11-10T13:42:36Z</time>
      </trkpt>
      <trkpt lat="43.80652" lon="3.55623">
        <ele>691.7873437277</ele>
        <time>2015-11-10T13:42:44Z</time>
      </trkpt>
      <trkpt lat="43.80662" lon="3.55623">
        <ele>690.61951434072</ele>
        <time>2015-11-10T13:42:52Z</time>
      </trkpt>
      <trkpt lat="43.80664" lon="3.55623">
        <ele>690.61951434072</ele>
        <time>2015-11-10T13:42:54Z</time>
      </trkpt>
      <trkpt lat="43.80684" lon="3.55617">
        <ele>689.99383306457</ele>
        <time>2015-11-10T13:43:09Z</time>
      </trkpt>
      <trkpt lat="43.80758" lon="3.55635">
        <ele>688.00054575209</ele>
        <time>2015-11-10T13:44:15Z</time>
      </trkpt>
      <trkpt lat="43.80791" lon="3.55654">
        <ele>685.71287901209</ele>
        <time>2015-11-10T13:44:34Z</time>
      </trkpt>
      <trkpt lat="43.80803" lon="3.55677">
        <ele>683.14594419648</ele>
        <time>2015-11-10T13:44:59Z</time>
      </trkpt>
      <trkpt lat="43.80813" lon="3.55682">
        <ele>680.64582532588</ele>
        <time>2015-11-10T13:45:04Z</time>
      </trkpt>
      <trkpt lat="43.80848" lon="3.5569">
        <ele>677.85550347875</ele>
        <time>2015-11-10T13:45:30Z</time>
      </trkpt>
      <trkpt lat="43.80967" lon="3.55667">
        <ele>675.94357696131</ele>
        <time>2015-11-10T13:47:26Z</time>
      </trkpt>
      <trkpt lat="43.80978" lon="3.55659">
        <ele>674.17434391259</ele>
        <time>2015-11-10T13:47:37Z</time>
      </trkpt>
      <trkpt lat="43.80982" lon="3.55655">
        <ele>674.17434391259</ele>
        <time>2015-11-10T13:48:34Z</time>
      </trkpt>
      <trkpt lat="43.80981" lon="3.55656">
        <ele>674.17434391259</ele>
        <time>2015-11-10T13:48:34Z</time>
      </trkpt>
      <trkpt lat="43.80914" lon="3.55722">
        <ele>672.42758466997</ele>
        <time>2015-11-10T13:50:00Z</time>
      </trkpt>
      <trkpt lat="43.80914" lon="3.55733">
        <ele>672.42758466997</ele>
        <time>2015-11-10T13:50:00Z</time>
      </trkpt>
      <trkpt lat="43.80917" lon="3.5575">
        <ele>670.49077041816</ele>
        <time>2015-11-10T13:50:15Z</time>
      </trkpt>
      <trkpt lat="43.80918" lon="3.55822">
        <ele>667.7926260475</ele>
        <time>2015-11-10T13:50:51Z</time>
      </trkpt>
      <trkpt lat="43.8091" lon="3.55865">
        <ele>664.85778372278</ele>
        <time>2015-11-10T13:51:23Z</time>
      </trkpt>
      <trkpt lat="43.80909" lon="3.55877">
        <ele>664.85778372278</ele>
        <time>2015-11-10T13:51:24Z</time>
      </trkpt>
      <trkpt lat="43.80895" lon="3.55901">
        <ele>661.72604394774</ele>
        <time>2015-11-10T13:51:43Z</time>
      </trkpt>
      <trkpt lat="43.80894" lon="3.55902">
        <ele>661.72604394774</ele>
        <time>2015-11-10T13:51:44Z</time>
      </trkpt>
      <trkpt lat="43.80889" lon="3.55907">
        <ele>661.72604394774</ele>
        <time>2015-11-10T13:51:49Z</time>
      </trkpt>
      <trkpt lat="43.80863" lon="3.55921">
        <ele>658.65078436645</ele>
        <time>2015-11-10T13:52:16Z</time>
      </trkpt>
      <trkpt lat="43.80857" lon="3.55921">
        <ele>658.65078436645</ele>
        <time>2015-11-10T13:52:16Z</time>
      </trkpt>
      <trkpt lat="43.80834" lon="3.55925">
        <ele>655.49169606258</ele>
        <time>2015-11-10T13:52:34Z</time>
      </trkpt>
      <trkpt lat="43.80825" lon="3.55927">
        <ele>655.49169606258</ele>
        <time>2015-11-10T13:52:40Z</time>
      </trkpt>
      <trkpt lat="43.80803" lon="3.55934">
        <ele>652.46464656162</ele>
        <time>2015-11-10T13:52:58Z</time>
      </trkpt>
      <trkpt lat="43.808" lon="3.55934">
        <ele>652.46464656162</ele>
        <time>2015-11-10T13:52:59Z</time>
      </trkpt>
      <trkpt lat="43.80777" lon="3.55953">
        <ele>649.37993664773</ele>
        <time>2015-11-10T13:53:20Z</time>
      </trkpt>
      <trkpt lat="43.80762" lon="3.55963">
        <ele>646.86874481953</ele>
        <time>2015-11-10T13:53:39Z</time>
      </trkpt>
      <trkpt lat="43.80756" lon="3.55967">
        <ele>646.86874481953</ele>
        <time>2015-11-10T13:53:39Z</time>
      </trkpt>
      <trkpt lat="43.80735" lon="3.5599">
        <ele>644.93758696925</ele>
        <time>2015-11-10T13:54:00Z</time>
      </trkpt>
      <trkpt lat="43.80707" lon="3.56014">
        <ele>643.67710034405</ele>
        <time>2015-11-10T13:54:24Z</time>
      </trkpt>
      <trkpt lat="43.80697" lon="3.56033">
        <ele>643.03945092721</ele>
        <time>2015-11-10T13:54:44Z</time>
      </trkpt>
      <trkpt lat="43.8069" lon="3.56038">
        <ele>643.03945092721</ele>
        <time>2015-11-10T13:54:44Z</time>
      </trkpt>
      <trkpt lat="43.80672" lon="3.56048">
        <ele>643.00717523853</ele>
        <time>2015-11-10T13:55:05Z</time>
      </trkpt>
      <trkpt lat="43.80651" lon="3.56056">
        <ele>643.08662647212</ele>
        <time>2015-11-10T13:55:24Z</time>
      </trkpt>
      <trkpt lat="43.80628" lon="3.56088">
        <ele>643.46842746385</ele>
        <time>2015-11-10T13:55:49Z</time>
      </trkpt>
      <trkpt lat="43.80618" lon="3.56106">
        <ele>644.02555863954</ele>
        <time>2015-11-10T13:56:08Z</time>
      </trkpt>
      <trkpt lat="43.8059" lon="3.56204">
        <ele>644.95675022395</ele>
        <time>2015-11-10T13:57:21Z</time>
      </trkpt>
      <trkpt lat="43.80593" lon="3.56232">
        <ele>646.08469727228</ele>
        <time>2015-11-10T13:57:21Z</time>
      </trkpt>
      <trkpt lat="43.80692" lon="3.56278">
        <ele>645.32780118279</ele>
        <time>2015-11-10T13:58:49Z</time>
      </trkpt>
      <trkpt lat="43.80729" lon="3.56267">
        <ele>644.79770843018</ele>
        <time>2015-11-10T13:59:24Z</time>
      </trkpt>
      <trkpt lat="43.80763" lon="3.56271">
        <ele>643.55361998162</ele>
        <time>2015-11-10T13:59:52Z</time>
      </trkpt>
      <trkpt lat="43.80789" lon="3.56282">
        <ele>641.57605997095</ele>
        <time>2015-11-10T14:00:13Z</time>
      </trkpt>
      <trkpt lat="43.8079" lon="3.56281">
        <ele>641.57605997095</ele>
        <time>2015-11-10T14:00:14Z</time>
      </trkpt>
      <trkpt lat="43.80825" lon="3.56287">
        <ele>640.44863295449</ele>
        <time>2015-11-10T14:00:39Z</time>
      </trkpt>
      <trkpt lat="43.80828" lon="3.56292">
        <ele>640.44863295449</ele>
        <time>2015-11-10T14:00:45Z</time>
      </trkpt>
      <trkpt lat="43.80833" lon="3.56299">
        <ele>639.87803351868</ele>
        <time>2015-11-10T14:01:00Z</time>
      </trkpt>
      <trkpt lat="43.8084" lon="3.56309">
        <ele>639.56208392079</ele>
        <time>2015-11-10T14:01:00Z</time>
      </trkpt>
      <trkpt lat="43.80852" lon="3.56314">
        <ele>639.65239601438</ele>
        <time>2015-11-10T14:01:10Z</time>
      </trkpt>
      <trkpt lat="43.80854" lon="3.56318">
        <ele>639.65239601438</ele>
        <time>2015-11-10T14:01:14Z</time>
      </trkpt>
      <trkpt lat="43.80872" lon="3.56355">
        <ele>640.33152132026</ele>
        <time>2015-11-10T14:01:44Z</time>
      </trkpt>
      <trkpt lat="43.80901" lon="3.56448">
        <ele>641.72371343697</ele>
        <time>2015-11-10T14:02:44Z</time>
      </trkpt>
      <trkpt lat="43.80904" lon="3.56456">
        <ele>641.72371343697</ele>
        <time>2015-11-10T14:02:49Z</time>
      </trkpt>
      <trkpt lat="43.80915" lon="3.56478">
        <ele>643.12067800138</ele>
        <time>2015-11-10T14:03:07Z</time>
      </trkpt>
      <trkpt lat="43.80922" lon="3.56496">
        <ele>644.38496999034</ele>
        <time>2015-11-10T14:03:19Z</time>
      </trkpt>
      <trkpt lat="43.80926" lon="3.56516">
        <ele>645.54818551233</ele>
        <time>2015-11-10T14:03:36Z</time>
      </trkpt>
      <trkpt lat="43.80927" lon="3.56531">
        <ele>646.56789480226</ele>
        <time>2015-11-10T14:03:41Z</time>
      </trkpt>
      <trkpt lat="43.80931" lon="3.56548">
        <ele>647.17469113483</ele>
        <time>2015-11-10T14:04:09Z</time>
      </trkpt>
      <trkpt lat="43.80928" lon="3.56556">
        <ele>647.17469113483</ele>
        <time>2015-11-10T14:04:15Z</time>
      </trkpt>
      <trkpt lat="43.80925" lon="3.56567">
        <ele>647.52372058176</ele>
        <time>2015-11-10T14:04:31Z</time>
      </trkpt>
      <trkpt lat="43.80925" lon="3.5658">
        <ele>647.81720098519</ele>
        <time>2015-11-10T14:04:31Z</time>
      </trkpt>
      <trkpt lat="43.80917" lon="3.5661">
        <ele>647.89689100425</ele>
        <time>2015-11-10T14:04:49Z</time>
      </trkpt>
      <trkpt lat="43.80901" lon="3.56622">
        <ele>647.80422741926</ele>
        <time>2015-11-10T14:05:04Z</time>
      </trkpt>
      <trkpt lat="43.80901" lon="3.56623">
        <ele>647.80422741926</ele>
        <time>2015-11-10T14:05:04Z</time>
      </trkpt>
      <trkpt lat="43.80907" lon="3.56664">
        <ele>647.16027404569</ele>
        <time>2015-11-10T14:05:33Z</time>
      </trkpt>
      <trkpt lat="43.80911" lon="3.56668">
        <ele>647.16027404569</ele>
        <time>2015-11-10T14:05:34Z</time>
      </trkpt>
      <trkpt lat="43.8092" lon="3.5668">
        <ele>646.32173024132</ele>
        <time>2015-11-10T14:05:45Z</time>
      </trkpt>
      <trkpt lat="43.80927" lon="3.56691">
        <ele>645.40357509474</ele>
        <time>2015-11-10T14:05:50Z</time>
      </trkpt>
      <trkpt lat="43.80951" lon="3.56679">
        <ele>644.87294069969</ele>
        <time>2015-11-10T14:06:19Z</time>
      </trkpt>
      <trkpt lat="43.80966" lon="3.56703">
        <ele>645.06077212751</ele>
        <time>2015-11-10T14:06:44Z</time>
      </trkpt>
      <trkpt lat="43.80967" lon="3.56706">
        <ele>645.06077212751</ele>
        <time>2015-11-10T14:06:52Z</time>
      </trkpt>
      <trkpt lat="43.80962" lon="3.56717">
        <ele>645.33505515506</ele>
        <time>2015-11-10T14:07:08Z</time>
      </trkpt>
      <trkpt lat="43.80963" lon="3.56733">
        <ele>645.58561602029</ele>
        <time>2015-11-10T14:07:08Z</time>
      </trkpt>
      <trkpt lat="43.80963" lon="3.56735">
        <ele>645.58561602029</ele>
        <time>2015-11-10T14:07:09Z</time>
      </trkpt>
      <trkpt lat="43.80956" lon="3.56754">
        <ele>645.91228611739</ele>
        <time>2015-11-10T14:07:33Z</time>
      </trkpt>
      <trkpt lat="43.80946" lon="3.5676">
        <ele>646.19127441024</ele>
        <time>2015-11-10T14:07:34Z</time>
      </trkpt>
      <trkpt lat="43.80944" lon="3.56767">
        <ele>646.19127441024</ele>
        <time>2015-11-10T14:07:39Z</time>
      </trkpt>
      <trkpt lat="43.8095" lon="3.56783">
        <ele>646.39457667023</ele>
        <time>2015-11-10T14:07:57Z</time>
      </trkpt>
      <trkpt lat="43.80953" lon="3.56796">
        <ele>646.58301844448</ele>
        <time>2015-11-10T14:07:57Z</time>
      </trkpt>
      <trkpt lat="43.80953" lon="3.56799">
        <ele>646.58301844448</ele>
        <time>2015-11-10T14:07:59Z</time>
      </trkpt>
      <trkpt lat="43.80954" lon="3.56808">
        <ele>646.58301844448</ele>
        <time>2015-11-10T14:08:15Z</time>
      </trkpt>
      <trkpt lat="43.80951" lon="3.56819">
        <ele>646.68339246815</ele>
        <time>2015-11-10T14:08:15Z</time>
      </trkpt>
      <trkpt lat="43.80948" lon="3.5683">
        <ele>646.68339246815</ele>
        <time>2015-11-10T14:08:26Z</time>
      </trkpt>
      <trkpt lat="43.80947" lon="3.56834">
        <ele>646.67144273201</ele>
        <time>2015-11-10T14:08:29Z</time>
      </trkpt>
      <trkpt lat="43.80953" lon="3.56855">
        <ele>646.48186821771</ele>
        <time>2015-11-10T14:08:50Z</time>
      </trkpt>
      <trkpt lat="43.80954" lon="3.56891">
        <ele>646.09798510001</ele>
        <time>2015-11-10T14:09:20Z</time>
      </trkpt>
      <trkpt lat="43.80953" lon="3.56897">
        <ele>646.09798510001</ele>
        <time>2015-11-10T14:09:20Z</time>
      </trkpt>
      <trkpt lat="43.80959" lon="3.56936">
        <ele>645.33203089085</ele>
        <time>2015-11-10T14:09:54Z</time>
      </trkpt>
      <trkpt lat="43.80969" lon="3.56976">
        <ele>644.08324080842</ele>
        <time>2015-11-10T14:10:22Z</time>
      </trkpt>
      <trkpt lat="43.80977" lon="3.57">
        <ele>642.60554200075</ele>
        <time>2015-11-10T14:10:44Z</time>
      </trkpt>
      <trkpt lat="43.80983" lon="3.57031">
        <ele>640.84668538954</ele>
        <time>2015-11-10T14:11:10Z</time>
      </trkpt>
      <trkpt lat="43.80995" lon="3.57102">
        <ele>638.3988141265</ele>
        <time>2015-11-10T14:12:04Z</time>
      </trkpt>
      <trkpt lat="43.80995" lon="3.57115">
        <ele>635.83712618269</ele>
        <time>2015-11-10T14:12:25Z</time>
      </trkpt>
      <trkpt lat="43.80989" lon="3.57136">
        <ele>633.1616836521</ele>
        <time>2015-11-10T14:12:34Z</time>
      </trkpt>
      <trkpt lat="43.80991" lon="3.57153">
        <ele>630.44491027205</ele>
        <time>2015-11-10T14:12:58Z</time>
      </trkpt>
      <trkpt lat="43.80992" lon="3.57164">
        <ele>630.44491027205</ele>
        <time>2015-11-10T14:12:59Z</time>
      </trkpt>
      <trkpt lat="43.80996" lon="3.57175">
        <ele>627.60988727226</ele>
        <time>2015-11-10T14:13:16Z</time>
      </trkpt>
      <trkpt lat="43.81" lon="3.57189">
        <ele>624.84503344561</ele>
        <time>2015-11-10T14:13:16Z</time>
      </trkpt>
      <trkpt lat="43.80992" lon="3.57194">
        <ele>624.84503344561</ele>
        <time>2015-11-10T14:13:24Z</time>
      </trkpt>
      <trkpt lat="43.80988" lon="3.57195">
        <ele>621.80586775757</ele>
        <time>2015-11-10T14:13:50Z</time>
      </trkpt>
      <trkpt lat="43.80966" lon="3.57197">
        <ele>617.92891597602</ele>
        <time>2015-11-10T14:14:41Z</time>
      </trkpt>
      <trkpt lat="43.80964" lon="3.57198">
        <ele>617.92891597602</ele>
        <time>2015-11-10T14:14:44Z</time>
      </trkpt>
      <trkpt lat="43.80945" lon="3.57212">
        <ele>613.8184165676</ele>
        <time>2015-11-10T14:15:07Z</time>
      </trkpt>
      <trkpt lat="43.80944" lon="3.57213">
        <ele>613.8184165676</ele>
        <time>2015-11-10T14:15:09Z</time>
      </trkpt>
      <trkpt lat="43.80925" lon="3.57227">
        <ele>609.717715657</ele>
        <time>2015-11-10T14:15:34Z</time>
      </trkpt>
      <trkpt lat="43.80922" lon="3.57236">
        <ele>609.717715657</ele>
        <time>2015-11-10T14:15:34Z</time>
      </trkpt>
      <trkpt lat="43.80917" lon="3.57258">
        <ele>605.41978649339</ele>
        <time>2015-11-10T14:15:51Z</time>
      </trkpt>
      <trkpt lat="43.80917" lon="3.5726">
        <ele>605.41978649339</ele>
        <time>2015-11-10T14:15:54Z</time>
      </trkpt>
      <trkpt lat="43.809" lon="3.5729">
        <ele>600.86290764505</ele>
        <time>2015-11-10T14:16:19Z</time>
      </trkpt>
      <trkpt lat="43.80898" lon="3.57293">
        <ele>600.86290764505</ele>
        <time>2015-11-10T14:16:26Z</time>
      </trkpt>
      <trkpt lat="43.80888" lon="3.573">
        <ele>596.36513190072</ele>
        <time>2015-11-10T14:16:47Z</time>
      </trkpt>
      <trkpt lat="43.80875" lon="3.57314">
        <ele>592.14873389402</ele>
        <time>2015-11-10T14:16:49Z</time>
      </trkpt>
      <trkpt lat="43.80859" lon="3.57342">
        <ele>587.72692809099</ele>
        <time>2015-11-10T14:17:19Z</time>
      </trkpt>
      <trkpt lat="43.80846" lon="3.57357">
        <ele>583.29754103067</ele>
        <time>2015-11-10T14:17:36Z</time>
      </trkpt>
      <trkpt lat="43.80845" lon="3.57359">
        <ele>583.29754103067</ele>
        <time>2015-11-10T14:17:39Z</time>
      </trkpt>
      <trkpt lat="43.80833" lon="3.5737">
        <ele>579.07247514975</ele>
        <time>2015-11-10T14:17:51Z</time>
      </trkpt>
      <trkpt lat="43.80816" lon="3.57383">
        <ele>574.94461467429</ele>
        <time>2015-11-10T14:18:09Z</time>
      </trkpt>
      <trkpt lat="43.8081" lon="3.57389">
        <ele>574.94461467429</ele>
        <time>2015-11-10T14:18:14Z</time>
      </trkpt>
      <trkpt lat="43.80796" lon="3.57394">
        <ele>570.82859737848</ele>
        <time>2015-11-10T14:18:32Z</time>
      </trkpt>
      <trkpt lat="43.80787" lon="3.57396">
        <ele>566.94767260496</ele>
        <time>2015-11-10T14:18:32Z</time>
      </trkpt>
      <trkpt lat="43.80774" lon="3.57408">
        <ele>563.08984502798</ele>
        <time>2015-11-10T14:18:44Z</time>
      </trkpt>
      <trkpt lat="43.80769" lon="3.57407">
        <ele>563.08984502798</ele>
        <time>2015-11-10T14:18:49Z</time>
      </trkpt>
      <trkpt lat="43.80758" lon="3.57405">
        <ele>559.11600687682</ele>
        <time>2015-11-10T14:19:04Z</time>
      </trkpt>
      <trkpt lat="43.80726" lon="3.5741">
        <ele>554.94056162034</ele>
        <time>2015-11-10T14:19:39Z</time>
      </trkpt>
      <trkpt lat="43.80703" lon="3.57411">
        <ele>550.87359976498</ele>
        <time>2015-11-10T14:19:56Z</time>
      </trkpt>
      <trkpt lat="43.80701" lon="3.57411">
        <ele>550.87359976498</ele>
        <time>2015-11-10T14:19:59Z</time>
      </trkpt>
      <trkpt lat="43.80686" lon="3.57409">
        <ele>546.79835072527</ele>
        <time>2015-11-10T14:20:23Z</time>
      </trkpt>
      <trkpt lat="43.80676" lon="3.5741">
        <ele>542.98106868135</ele>
        <time>2015-11-10T14:20:23Z</time>
      </trkpt>
      <trkpt lat="43.80675" lon="3.5741">
        <ele>542.98106868135</ele>
        <time>2015-11-10T14:20:24Z</time>
      </trkpt>
      <trkpt lat="43.80671" lon="3.57412">
        <ele>542.98106868135</ele>
        <time>2015-11-10T14:20:32Z</time>
      </trkpt>
      <trkpt lat="43.80653" lon="3.57422">
        <ele>538.86043880446</ele>
        <time>2015-11-10T14:20:51Z</time>
      </trkpt>
      <trkpt lat="43.80651" lon="3.57422">
        <ele>538.86043880446</ele>
        <time>2015-11-10T14:20:54Z</time>
      </trkpt>
      <trkpt lat="43.80626" lon="3.57426">
        <ele>534.49341384094</ele>
        <time>2015-11-10T14:21:19Z</time>
      </trkpt>
      <trkpt lat="43.80614" lon="3.57423">
        <ele>530.36552820665</ele>
        <time>2015-11-10T14:21:41Z</time>
      </trkpt>
      <trkpt lat="43.80602" lon="3.57421">
        <ele>526.56544446476</ele>
        <time>2015-11-10T14:21:41Z</time>
      </trkpt>
      <trkpt lat="43.80596" lon="3.57421">
        <ele>526.56544446476</ele>
        <time>2015-11-10T14:21:49Z</time>
      </trkpt>
      <trkpt lat="43.80581" lon="3.57409">
        <ele>522.61210654328</ele>
        <time>2015-11-10T14:22:13Z</time>
      </trkpt>
      <trkpt lat="43.80574" lon="3.57406">
        <ele>522.61210654328</ele>
        <time>2015-11-10T14:22:13Z</time>
      </trkpt>
      <trkpt lat="43.80573" lon="3.57405">
        <ele>522.61210654328</ele>
        <time>2015-11-10T14:22:14Z</time>
      </trkpt>
      <trkpt lat="43.80551" lon="3.57388">
        <ele>518.27614477191</ele>
        <time>2015-11-10T14:22:39Z</time>
      </trkpt>
      <trkpt lat="43.80547" lon="3.57385">
        <ele>518.27614477191</ele>
        <time>2015-11-10T14:22:44Z</time>
      </trkpt>
      <trkpt lat="43.80537" lon="3.57381">
        <ele>514.15289137976</ele>
        <time>2015-11-10T14:22:52Z</time>
      </trkpt>
      <trkpt lat="43.80533" lon="3.57381">
        <ele>514.15289137976</ele>
        <time>2015-11-10T14:22:54Z</time>
      </trkpt>
      <trkpt lat="43.80504" lon="3.57383">
        <ele>509.6690430305</ele>
        <time>2015-11-10T14:23:24Z</time>
      </trkpt>
      <trkpt lat="43.80476" lon="3.57384">
        <ele>505.01474276465</ele>
        <time>2015-11-10T14:23:51Z</time>
      </trkpt>
      <trkpt lat="43.80457" lon="3.57386">
        <ele>500.49611155048</ele>
        <time>2015-11-10T14:24:16Z</time>
      </trkpt>
      <trkpt lat="43.80453" lon="3.57387">
        <ele>500.49611155048</ele>
        <time>2015-11-10T14:24:16Z</time>
      </trkpt>
      <trkpt lat="43.80451" lon="3.57386">
        <ele>500.49611155048</ele>
        <time>2015-11-10T14:24:19Z</time>
      </trkpt>
      <trkpt lat="43.80412" lon="3.57388">
        <ele>495.58914953079</ele>
        <time>2015-11-10T14:24:47Z</time>
      </trkpt>
      <trkpt lat="43.80411" lon="3.57388">
        <ele>495.58914953079</ele>
        <time>2015-11-10T14:24:49Z</time>
      </trkpt>
      <trkpt lat="43.80402" lon="3.57384">
        <ele>490.96210024968</ele>
        <time>2015-11-10T14:25:05Z</time>
      </trkpt>
      <trkpt lat="43.80391" lon="3.57375">
        <ele>486.64225228843</ele>
        <time>2015-11-10T14:25:30Z</time>
      </trkpt>
      <trkpt lat="43.80386" lon="3.57374">
        <ele>486.64225228843</ele>
        <time>2015-11-10T14:25:30Z</time>
      </trkpt>
      <trkpt lat="43.80359" lon="3.5737">
        <ele>482.45205099491</ele>
        <time>2015-11-10T14:26:01Z</time>
      </trkpt>
      <trkpt lat="43.80356" lon="3.57371">
        <ele>482.45205099491</ele>
        <time>2015-11-10T14:26:04Z</time>
      </trkpt>
      <trkpt lat="43.80346" lon="3.57373">
        <ele>478.6010946577</ele>
        <time>2015-11-10T14:26:23Z</time>
      </trkpt>
      <trkpt lat="43.80331" lon="3.57375">
        <ele>475.28242606515</ele>
        <time>2015-11-10T14:26:23Z</time>
      </trkpt>
      <trkpt lat="43.80325" lon="3.57373">
        <ele>475.28242606515</ele>
        <time>2015-11-10T14:26:29Z</time>
      </trkpt>
      <trkpt lat="43.80315" lon="3.57375">
        <ele>472.19765133994</ele>
        <time>2015-11-10T14:26:38Z</time>
      </trkpt>
      <trkpt lat="43.80314" lon="3.57374">
        <ele>472.19765133994</ele>
        <time>2015-11-10T14:26:39Z</time>
      </trkpt>
      <trkpt lat="43.80309" lon="3.57373">
        <ele>472.19765133994</ele>
        <time>2015-11-10T14:26:44Z</time>
      </trkpt>
      <trkpt lat="43.80289" lon="3.57368">
        <ele>468.96857953122</ele>
        <time>2015-11-10T14:27:04Z</time>
      </trkpt>
      <trkpt lat="43.80258" lon="3.57347">
        <ele>465.61972625188</ele>
        <time>2015-11-10T14:27:34Z</time>
      </trkpt>
      <trkpt lat="43.80248" lon="3.5734">
        <ele>462.60632154683</ele>
        <time>2015-11-10T14:27:58Z</time>
      </trkpt>
      <trkpt lat="43.80224" lon="3.57317">
        <ele>459.62851787625</ele>
        <time>2015-11-10T14:28:24Z</time>
      </trkpt>
      <trkpt lat="43.80221" lon="3.57315">
        <ele>459.62851787625</ele>
        <time>2015-11-10T14:28:29Z</time>
      </trkpt>
      <trkpt lat="43.8019" lon="3.57303">
        <ele>456.58120197104</ele>
        <time>2015-11-10T14:28:54Z</time>
      </trkpt>
      <trkpt lat="43.80184" lon="3.57304">
        <ele>456.58120197104</ele>
        <time>2015-11-10T14:29:02Z</time>
      </trkpt>
      <trkpt lat="43.80182" lon="3.57312">
        <ele>453.69852092373</ele>
        <time>2015-11-10T14:29:11Z</time>
      </trkpt>
      <trkpt lat="43.80205" lon="3.57337">
        <ele>450.72129464795</ele>
        <time>2015-11-10T14:29:50Z</time>
      </trkpt>
      <trkpt lat="43.80209" lon="3.57347">
        <ele>450.72129464795</ele>
        <time>2015-11-10T14:29:51Z</time>
      </trkpt>
      <trkpt lat="43.80229" lon="3.57381">
        <ele>447.49602868143</ele>
        <time>2015-11-10T14:30:18Z</time>
      </trkpt>
      <trkpt lat="43.80229" lon="3.57382">
        <ele>447.49602868143</ele>
        <time>2015-11-10T14:30:19Z</time>
      </trkpt>
      <trkpt lat="43.80225" lon="3.57386">
        <ele>447.49602868143</ele>
        <time>2015-11-10T14:30:39Z</time>
      </trkpt>
      <trkpt lat="43.80223" lon="3.57383">
        <ele>444.35669313136</ele>
        <time>2015-11-10T14:30:46Z</time>
      </trkpt>
      <trkpt lat="43.80207" lon="3.5737">
        <ele>441.23773184745</ele>
        <time>2015-11-10T14:31:07Z</time>
      </trkpt>
      <trkpt lat="43.80204" lon="3.57369">
        <ele>441.23773184745</ele>
        <time>2015-11-10T14:31:09Z</time>
      </trkpt>
      <trkpt lat="43.80194" lon="3.57354">
        <ele>438.29446112755</ele>
        <time>2015-11-10T14:31:35Z</time>
      </trkpt>
      <trkpt lat="43.80184" lon="3.57349">
        <ele>435.55496308051</ele>
        <time>2015-11-10T14:31:35Z</time>
      </trkpt>
      <trkpt lat="43.80166" lon="3.57354">
        <ele>432.82848568253</ele>
        <time>2015-11-10T14:32:08Z</time>
      </trkpt>
      <trkpt lat="43.80166" lon="3.57355">
        <ele>432.82848568253</ele>
        <time>2015-11-10T14:32:09Z</time>
      </trkpt>
      <trkpt lat="43.80174" lon="3.57369">
        <ele>430.42820884921</ele>
        <time>2015-11-10T14:32:25Z</time>
      </trkpt>
      <trkpt lat="43.80175" lon="3.57375">
        <ele>430.42820884921</ele>
        <time>2015-11-10T14:32:25Z</time>
      </trkpt>
      <trkpt lat="43.80176" lon="3.57381">
        <ele>430.42820884921</ele>
        <time>2015-11-10T14:32:29Z</time>
      </trkpt>
      <trkpt lat="43.80175" lon="3.57384">
        <ele>428.16781392195</ele>
        <time>2015-11-10T14:32:50Z</time>
      </trkpt>
      <trkpt lat="43.80167" lon="3.57378">
        <ele>428.16781392195</ele>
        <time>2015-11-10T14:32:54Z</time>
      </trkpt>
      <trkpt lat="43.80148" lon="3.57366">
        <ele>425.74457746681</ele>
        <time>2015-11-10T14:33:14Z</time>
      </trkpt>
      <trkpt lat="43.80146" lon="3.57364">
        <ele>425.74457746681</ele>
        <time>2015-11-10T14:33:21Z</time>
      </trkpt>
      <trkpt lat="43.80129" lon="3.5735">
        <ele>423.35404979617</ele>
        <time>2015-11-10T14:33:36Z</time>
      </trkpt>
      <trkpt lat="43.80127" lon="3.57349">
        <ele>423.35404979617</ele>
        <time>2015-11-10T14:33:39Z</time>
      </trkpt>
      <trkpt lat="43.80122" lon="3.57359">
        <ele>421.04764763734</ele>
        <time>2015-11-10T14:34:02Z</time>
      </trkpt>
      <trkpt lat="43.80125" lon="3.57368">
        <ele>421.04764763734</ele>
        <time>2015-11-10T14:34:04Z</time>
      </trkpt>
      <trkpt lat="43.80128" lon="3.57378">
        <ele>418.59899662217</ele>
        <time>2015-11-10T14:34:09Z</time>
      </trkpt>
      <trkpt lat="43.80128" lon="3.57389">
        <ele>418.59899662217</ele>
        <time>2015-11-10T14:34:20Z</time>
      </trkpt>
      <trkpt lat="43.80129" lon="3.57393">
        <ele>416.02937047269</ele>
        <time>2015-11-10T14:34:24Z</time>
      </trkpt>
      <trkpt lat="43.80125" lon="3.57406">
        <ele>413.30122428393</ele>
        <time>2015-11-10T14:34:37Z</time>
      </trkpt>
      <trkpt lat="43.80125" lon="3.57409">
        <ele>413.30122428393</ele>
        <time>2015-11-10T14:34:39Z</time>
      </trkpt>
      <trkpt lat="43.80106" lon="3.57382">
        <ele>408.91033434298</ele>
        <time>2015-11-10T14:35:26Z</time>
      </trkpt>
      <trkpt lat="43.80106" lon="3.57387">
        <ele>408.91033434298</ele>
        <time>2015-11-10T14:35:26Z</time>
      </trkpt>
      <trkpt lat="43.80083" lon="3.57391">
        <ele>403.29790262768</ele>
        <time>2015-11-10T14:36:28Z</time>
      </trkpt>
      <trkpt lat="43.80084" lon="3.57398">
        <ele>403.29790262768</ele>
        <time>2015-11-10T14:36:45Z</time>
      </trkpt>
      <trkpt lat="43.80083" lon="3.57414">
        <ele>397.49586726964</ele>
        <time>2015-11-10T14:37:00Z</time>
      </trkpt>
      <trkpt lat="43.80082" lon="3.57414">
        <ele>397.49586726964</ele>
        <time>2015-11-10T14:37:01Z</time>
      </trkpt>
      <trkpt lat="43.80074" lon="3.57413">
        <ele>397.49586726964</ele>
        <time>2015-11-10T14:37:39Z</time>
      </trkpt>
      <trkpt lat="43.80069" lon="3.57406">
        <ele>391.23597479863</ele>
        <time>2015-11-10T14:37:59Z</time>
      </trkpt>
      <trkpt lat="43.80064" lon="3.57401">
        <ele>391.23597479863</ele>
        <time>2015-11-10T14:37:59Z</time>
      </trkpt>
      <trkpt lat="43.80034" lon="3.57377">
        <ele>384.50154648648</ele>
        <time>2015-11-10T14:38:39Z</time>
      </trkpt>
      <trkpt lat="43.80033" lon="3.57395">
        <ele>377.99900060395</ele>
        <time>2015-11-10T14:39:00Z</time>
      </trkpt>
      <trkpt lat="43.80054" lon="3.57429">
        <ele>370.91223960213</ele>
        <time>2015-11-10T14:39:33Z</time>
      </trkpt>
      <trkpt lat="43.80063" lon="3.57448">
        <ele>363.95662755594</ele>
        <time>2015-11-10T14:39:41Z</time>
      </trkpt>
      <trkpt lat="43.80079" lon="3.5748">
        <ele>356.65604822813</ele>
        <time>2015-11-10T14:40:25Z</time>
      </trkpt>
      <trkpt lat="43.80087" lon="3.57498">
        <ele>350.01133538171</ele>
        <time>2015-11-10T14:40:26Z</time>
      </trkpt>
      <trkpt lat="43.80091" lon="3.57505">
        <ele>350.01133538171</ele>
        <time>2015-11-10T14:40:39Z</time>
      </trkpt>
      <trkpt lat="43.80095" lon="3.57509">
        <ele>343.83818331167</ele>
        <time>2015-11-10T14:40:40Z</time>
      </trkpt>
      <trkpt lat="43.80095" lon="3.5751">
        <ele>343.83818331167</ele>
        <time>2015-11-10T14:40:40Z</time>
      </trkpt>
      <trkpt lat="43.80099" lon="3.57515">
        <ele>343.83818331167</ele>
        <time>2015-11-10T14:41:07Z</time>
      </trkpt>
      <trkpt lat="43.801" lon="3.57527">
        <ele>337.87789811019</ele>
        <time>2015-11-10T14:41:07Z</time>
      </trkpt>
      <trkpt lat="43.80125" lon="3.57625">
        <ele>331.06860840174</ele>
        <time>2015-11-10T14:42:34Z</time>
      </trkpt>
      <trkpt lat="43.80108" lon="3.57714">
        <ele>323.56714580984</ele>
        <time>2015-11-10T14:44:05Z</time>
      </trkpt>
      <trkpt lat="43.80102" lon="3.57724">
        <ele>316.74553620175</ele>
        <time>2015-11-10T14:44:26Z</time>
      </trkpt>
      <trkpt lat="43.8011" lon="3.57757">
        <ele>310.24447185532</ele>
        <time>2015-11-10T14:44:51Z</time>
      </trkpt>
      <trkpt lat="43.80113" lon="3.57766">
        <ele>310.24447185532</ele>
        <time>2015-11-10T14:44:51Z</time>
      </trkpt>
      <trkpt lat="43.80119" lon="3.57785">
        <ele>303.91729346241</ele>
        <time>2015-11-10T14:45:22Z</time>
      </trkpt>
      <trkpt lat="43.80122" lon="3.57805">
        <ele>298.27593064699</ele>
        <time>2015-11-10T14:45:27Z</time>
      </trkpt>
      <trkpt lat="43.80123" lon="3.57806">
        <ele>298.27593064699</ele>
        <time>2015-11-10T14:45:28Z</time>
      </trkpt>
      <trkpt lat="43.80159" lon="3.5788">
        <ele>292.03442702589</ele>
        <time>2015-11-10T14:46:34Z</time>
      </trkpt>
      <trkpt lat="43.80175" lon="3.57918">
        <ele>285.67446431819</ele>
        <time>2015-11-10T14:47:08Z</time>
      </trkpt>
      <trkpt lat="43.80171" lon="3.57922">
        <ele>285.67446431819</ele>
        <time>2015-11-10T14:47:33Z</time>
      </trkpt>
      <trkpt lat="43.80159" lon="3.57911">
        <ele>279.46953885533</ele>
        <time>2015-11-10T14:47:33Z</time>
      </trkpt>
      <trkpt lat="43.80142" lon="3.57902">
        <ele>273.54272198806</ele>
        <time>2015-11-10T14:48:25Z</time>
      </trkpt>
      <trkpt lat="43.80167" lon="3.57923">
        <ele>269.05908031685</ele>
        <time>2015-11-10T14:50:34Z</time>
      </trkpt>
      <trkpt lat="43.80232" lon="3.58001">
        <ele>264.42780136997</ele>
        <time>2015-11-10T14:50:49Z</time>
      </trkpt>
      <trkpt lat="43.80257" lon="3.58042">
        <ele>259.99096927566</ele>
        <time>2015-11-10T14:50:54Z</time>
      </trkpt>
      <trkpt lat="43.80315" lon="3.58122">
        <ele>254.9551713401</ele>
        <time>2015-11-10T14:51:04Z</time>
      </trkpt>
      <trkpt lat="43.80352" lon="3.58143">
        <ele>250.07115117043</ele>
        <time>2015-11-10T14:51:09Z</time>
      </trkpt>
      <trkpt lat="43.80413" lon="3.58127">
        <ele>245.34220349404</ele>
        <time>2015-11-10T14:51:19Z</time>
      </trkpt>
      <trkpt lat="43.80394" lon="3.58096">
        <ele>240.87169531836</ele>
        <time>2015-11-10T14:51:24Z</time>
      </trkpt>
      <trkpt lat="43.80414" lon="3.5807">
        <ele>236.25016901561</ele>
        <time>2015-11-10T14:51:39Z</time>
      </trkpt>
    </trkseg>
  </trk>
</gpx>